sensor_id;sensor_type;location;lat;lon;timestamp;P1;durP1;ratioP1;P2;durP2;ratioP2
10939;SDS011;5522;42.696;23.494;2024-03-08T00:00:03;0.30;;;0.30;;
10939;SDS011;5522;42.696;23.494;2024-03-08T00:02:35;0.30;;;0.30;;
10939;SDS011;5522;42.696;23.494;2024-03-08T00:05:04;0.30;;;0.30;;
10939;SDS011;5522;42.696;23.494;2024-03-08T00:07:33;0.43;;;0.30;;
10939;SDS011;5522;42.696;23.494;2024-03-08T00:10:01;0.47;;;0.30;;
10939;SDS011;5522;42.696;23.494;2024-03-08T00:12:28;0.20;;;0.20;;
10939;SDS011;5522;42.696;23.494;2024-03-08T00:14:55;0.35;;;0.20;;
10939;SDS011;5522;42.696;23.494;2024-03-08T00:17:22;0.20;;;0.20;;
10939;SDS011;5522;42.696;23.494;2024-03-08T00:19:50;0.25;;;0.20;;
10939;SDS011;5522;42.696;23.494;2024-03-08T00:22:18;0.20;;;0.20;;
10939;SDS011;5522;42.696;23.494;2024-03-08T00:24:45;1.00;;;0.55;;
10939;SDS011;5522;42.696;23.494;2024-03-08T00:27:12;0.30;;;0.30;;
10939;SDS011;5522;42.696;23.494;2024-03-08T00:29:39;0.30;;;0.30;;
10939;SDS011;5522;42.696;23.494;2024-03-08T00:32:06;0.30;;;0.30;;
10939;SDS011;5522;42.696;23.494;2024-03-08T00:34:34;0.30;;;0.30;;
10939;SDS011;5522;42.696;23.494;2024-03-08T00:37:02;0.30;;;0.30;;
10939;SDS011;5522;42.696;23.494;2024-03-08T00:39:30;0.20;;;0.20;;
10939;SDS011;5522;42.696;23.494;2024-03-08T00:41:57;0.30;;;0.30;;
10939;SDS011;5522;42.696;23.494;2024-03-08T00:44:24;0.30;;;0.30;;
10939;SDS011;5522;42.696;23.494;2024-03-08T00:46:51;0.40;;;0.40;;
10939;SDS011;5522;42.696;23.494;2024-03-08T00:49:18;0.30;;;0.30;;
10939;SDS011;5522;42.696;23.494;2024-03-08T00:51:45;0.30;;;0.30;;
10939;SDS011;5522;42.696;23.494;2024-03-08T00:54:12;0.82;;;0.30;;
10939;SDS011;5522;42.696;23.494;2024-03-08T00:56:40;0.10;;;0.10;;
10939;SDS011;5522;42.696;23.494;2024-03-08T00:59:07;0.20;;;0.20;;
10939;SDS011;5522;42.696;23.494;2024-03-08T01:09:29;0.00;;;0.00;;
10939;SDS011;5522;42.696;23.494;2024-03-08T01:12:00;0.10;;;0.10;;
10939;SDS011;5522;42.696;23.494;2024-03-08T01:14:27;0.10;;;0.10;;
10939;SDS011;5522;42.696;23.494;2024-03-08T01:16:56;0.10;;;0.10;;
10939;SDS011;5522;42.696;23.494;2024-03-08T01:19:22;1.65;;;0.10;;
10939;SDS011;5522;42.696;23.494;2024-03-08T01:21:50;0.20;;;0.20;;
10939;SDS011;5522;42.696;23.494;2024-03-08T01:24:16;0.30;;;0.20;;
10939;SDS011;5522;42.696;23.494;2024-03-08T01:26:43;0.28;;;0.28;;
10939;SDS011;5522;42.696;23.494;2024-03-08T01:29:11;0.85;;;0.80;;
10939;SDS011;5522;42.696;23.494;2024-03-08T01:31:38;1.70;;;1.20;;
10939;SDS011;5522;42.696;23.494;2024-03-08T01:34:05;1.85;;;1.52;;
10939;SDS011;5522;42.696;23.494;2024-03-08T01:36:32;0.80;;;0.80;;
10939;SDS011;5522;42.696;23.494;2024-03-08T01:38:58;0.50;;;0.50;;
10939;SDS011;5522;42.696;23.494;2024-03-08T01:41:25;0.60;;;0.60;;
10939;SDS011;5522;42.696;23.494;2024-03-08T01:43:54;0.50;;;0.50;;
10939;SDS011;5522;42.696;23.494;2024-03-08T01:46:23;0.40;;;0.40;;
10939;SDS011;5522;42.696;23.494;2024-03-08T01:48:50;0.52;;;0.40;;
10939;SDS011;5522;42.696;23.494;2024-03-08T01:51:17;0.50;;;0.50;;
10939;SDS011;5522;42.696;23.494;2024-03-08T01:53:45;0.40;;;0.40;;
10939;SDS011;5522;42.696;23.494;2024-03-08T01:56:13;0.40;;;0.40;;
10939;SDS011;5522;42.696;23.494;2024-03-08T01:58:40;0.50;;;0.40;;
10939;SDS011;5522;42.696;23.494;2024-03-08T02:01:08;0.63;;;0.60;;
10939;SDS011;5522;42.696;23.494;2024-03-08T02:03:39;0.30;;;0.30;;
10939;SDS011;5522;42.696;23.494;2024-03-08T02:06:06;0.30;;;0.30;;
10939;SDS011;5522;42.696;23.494;2024-03-08T02:08:35;0.40;;;0.30;;
10939;SDS011;5522;42.696;23.494;2024-03-08T02:11:02;3.13;;;0.65;;
10939;SDS011;5522;42.696;23.494;2024-03-08T02:13:30;0.45;;;0.40;;
10939;SDS011;5522;42.696;23.494;2024-03-08T02:15:57;1.63;;;0.30;;
10939;SDS011;5522;42.696;23.494;2024-03-08T02:18:27;0.40;;;0.40;;
10939;SDS011;5522;42.696;23.494;2024-03-08T02:20:56;0.30;;;0.30;;
10939;SDS011;5522;42.696;23.494;2024-03-08T02:23:24;1.50;;;0.20;;
10939;SDS011;5522;42.696;23.494;2024-03-08T02:25:52;0.68;;;0.20;;
10939;SDS011;5522;42.696;23.494;2024-03-08T02:28:21;0.30;;;0.30;;
10939;SDS011;5522;42.696;23.494;2024-03-08T02:30:48;0.73;;;0.30;;
10939;SDS011;5522;42.696;23.494;2024-03-08T02:33:16;0.30;;;0.30;;
10939;SDS011;5522;42.696;23.494;2024-03-08T02:35:44;1.30;;;0.30;;
10939;SDS011;5522;42.696;23.494;2024-03-08T02:38:13;0.40;;;0.40;;
10939;SDS011;5522;42.696;23.494;2024-03-08T02:40:41;1.20;;;0.40;;
10939;SDS011;5522;42.696;23.494;2024-03-08T02:43:09;0.50;;;0.40;;
10939;SDS011;5522;42.696;23.494;2024-03-08T02:45:36;0.73;;;0.73;;
10939;SDS011;5522;42.696;23.494;2024-03-08T02:48:03;2.30;;;2.10;;
10939;SDS011;5522;42.696;23.494;2024-03-08T02:50:32;2.58;;;2.38;;
10939;SDS011;5522;42.696;23.494;2024-03-08T02:52:59;4.13;;;3.83;;
10939;SDS011;5522;42.696;23.494;2024-03-08T02:55:28;4.78;;;4.45;;
10939;SDS011;5522;42.696;23.494;2024-03-08T02:57:55;2.15;;;2.00;;
10939;SDS011;5522;42.696;23.494;2024-03-08T03:00:22;1.60;;;1.58;;
10939;SDS011;5522;42.696;23.494;2024-03-08T03:02:49;1.58;;;1.48;;
10939;SDS011;5522;42.696;23.494;2024-03-08T03:05:19;1.77;;;1.13;;
10939;SDS011;5522;42.696;23.494;2024-03-08T03:07:45;1.50;;;0.73;;
10939;SDS011;5522;42.696;23.494;2024-03-08T03:10:13;1.30;;;0.50;;
10939;SDS011;5522;42.696;23.494;2024-03-08T03:12:43;0.32;;;0.32;;
10939;SDS011;5522;42.696;23.494;2024-03-08T03:15:11;0.30;;;0.30;;
10939;SDS011;5522;42.696;23.494;2024-03-08T03:17:39;0.38;;;0.30;;
10939;SDS011;5522;42.696;23.494;2024-03-08T03:20:06;0.50;;;0.50;;
10939;SDS011;5522;42.696;23.494;2024-03-08T03:22:38;0.30;;;0.30;;
10939;SDS011;5522;42.696;23.494;2024-03-08T03:25:06;0.25;;;0.25;;
10939;SDS011;5522;42.696;23.494;2024-03-08T03:27:34;0.30;;;0.20;;
10939;SDS011;5522;42.696;23.494;2024-03-08T03:30:03;0.30;;;0.30;;
10939;SDS011;5522;42.696;23.494;2024-03-08T03:32:58;0.47;;;0.40;;
10939;SDS011;5522;42.696;23.494;2024-03-08T03:35:26;0.40;;;0.40;;
10939;SDS011;5522;42.696;23.494;2024-03-08T03:37:53;0.40;;;0.40;;
10939;SDS011;5522;42.696;23.494;2024-03-08T03:40:31;0.40;;;0.40;;
10939;SDS011;5522;42.696;23.494;2024-03-08T03:42:58;0.43;;;0.43;;
10939;SDS011;5522;42.696;23.494;2024-03-08T03:45:25;0.63;;;0.40;;
10939;SDS011;5522;42.696;23.494;2024-03-08T03:47:52;2.38;;;0.38;;
10939;SDS011;5522;42.696;23.494;2024-03-08T03:50:21;0.40;;;0.40;;
10939;SDS011;5522;42.696;23.494;2024-03-08T03:52:48;0.38;;;0.38;;
10939;SDS011;5522;42.696;23.494;2024-03-08T03:55:15;0.30;;;0.30;;
10939;SDS011;5522;42.696;23.494;2024-03-08T03:57:43;0.55;;;0.55;;
10939;SDS011;5522;42.696;23.494;2024-03-08T04:00:11;0.50;;;0.50;;
10939;SDS011;5522;42.696;23.494;2024-03-08T04:02:38;0.50;;;0.50;;
10939;SDS011;5522;42.696;23.494;2024-03-08T04:05:06;0.50;;;0.50;;
10939;SDS011;5522;42.696;23.494;2024-03-08T04:07:36;0.40;;;0.40;;
10939;SDS011;5522;42.696;23.494;2024-03-08T04:10:03;0.40;;;0.30;;
10939;SDS011;5522;42.696;23.494;2024-03-08T04:12:32;0.20;;;0.20;;
10939;SDS011;5522;42.696;23.494;2024-03-08T04:14:59;0.90;;;0.30;;
10939;SDS011;5522;42.696;23.494;2024-03-08T04:17:26;0.20;;;0.20;;
10939;SDS011;5522;42.696;23.494;2024-03-08T04:19:52;0.35;;;0.20;;
10939;SDS011;5522;42.696;23.494;2024-03-08T04:22:19;1.00;;;0.40;;
10939;SDS011;5522;42.696;23.494;2024-03-08T04:24:48;0.45;;;0.30;;
10939;SDS011;5522;42.696;23.494;2024-03-08T04:27:14;0.20;;;0.20;;
10939;SDS011;5522;42.696;23.494;2024-03-08T04:29:41;1.85;;;0.40;;
10939;SDS011;5522;42.696;23.494;2024-03-08T04:32:09;0.30;;;0.30;;
10939;SDS011;5522;42.696;23.494;2024-03-08T04:34:38;0.30;;;0.30;;
10939;SDS011;5522;42.696;23.494;2024-03-08T04:37:05;0.50;;;0.35;;
10939;SDS011;5522;42.696;23.494;2024-03-08T04:39:32;0.40;;;0.40;;
10939;SDS011;5522;42.696;23.494;2024-03-08T04:42:01;0.57;;;0.50;;
10939;SDS011;5522;42.696;23.494;2024-03-08T04:44:29;1.15;;;0.70;;
10939;SDS011;5522;42.696;23.494;2024-03-08T04:46:56;2.03;;;1.00;;
10939;SDS011;5522;42.696;23.494;2024-03-08T04:49:23;2.85;;;1.00;;
10939;SDS011;5522;42.696;23.494;2024-03-08T04:51:50;4.70;;;1.58;;
10939;SDS011;5522;42.696;23.494;2024-03-08T04:54:17;1.85;;;1.33;;
10939;SDS011;5522;42.696;23.494;2024-03-08T04:56:44;3.22;;;1.65;;
10939;SDS011;5522;42.696;23.494;2024-03-08T04:59:12;4.45;;;2.00;;
10939;SDS011;5522;42.696;23.494;2024-03-08T05:01:39;2.33;;;1.70;;
10939;SDS011;5522;42.696;23.494;2024-03-08T05:04:06;3.85;;;2.35;;
10939;SDS011;5522;42.696;23.494;2024-03-08T05:06:33;7.00;;;2.80;;
10939;SDS011;5522;42.696;23.494;2024-03-08T05:09:00;4.72;;;2.92;;
10939;SDS011;5522;42.696;23.494;2024-03-08T05:11:38;4.68;;;3.30;;
10939;SDS011;5522;42.696;23.494;2024-03-08T05:14:04;4.00;;;2.85;;
10939;SDS011;5522;42.696;23.494;2024-03-08T05:16:33;3.60;;;2.55;;
10939;SDS011;5522;42.696;23.494;2024-03-08T05:18:59;5.22;;;3.33;;
10939;SDS011;5522;42.696;23.494;2024-03-08T05:21:26;6.50;;;2.92;;
10939;SDS011;5522;42.696;23.494;2024-03-08T05:23:54;6.05;;;3.58;;
10939;SDS011;5522;42.696;23.494;2024-03-08T05:26:21;7.18;;;3.25;;
10939;SDS011;5522;42.696;23.494;2024-03-08T05:28:48;6.78;;;4.05;;
10939;SDS011;5522;42.696;23.494;2024-03-08T05:31:17;4.85;;;3.40;;
10939;SDS011;5522;42.696;23.494;2024-03-08T05:33:47;5.53;;;2.72;;
10939;SDS011;5522;42.696;23.494;2024-03-08T05:36:14;3.97;;;3.08;;
10939;SDS011;5522;42.696;23.494;2024-03-08T05:38:41;2.95;;;2.42;;
10939;SDS011;5522;42.696;23.494;2024-03-08T05:41:08;5.95;;;3.55;;
10939;SDS011;5522;42.696;23.494;2024-03-08T05:43:36;3.78;;;2.53;;
10939;SDS011;5522;42.696;23.494;2024-03-08T05:46:03;2.90;;;2.25;;
10939;SDS011;5522;42.696;23.494;2024-03-08T05:48:30;13.48;;;8.13;;
10939;SDS011;5522;42.696;23.494;2024-03-08T05:50:59;69.18;;;31.55;;
10939;SDS011;5522;42.696;23.494;2024-03-08T05:53:27;76.95;;;35.50;;
10939;SDS011;5522;42.696;23.494;2024-03-08T05:55:56;23.13;;;12.30;;
10939;SDS011;5522;42.696;23.494;2024-03-08T05:58:23;42.22;;;23.73;;
10939;SDS011;5522;42.696;23.494;2024-03-08T06:00:50;15.27;;;9.32;;
10939;SDS011;5522;42.696;23.494;2024-03-08T06:03:17;7.95;;;5.82;;
10939;SDS011;5522;42.696;23.494;2024-03-08T06:05:46;25.52;;;16.27;;
10939;SDS011;5522;42.696;23.494;2024-03-08T06:08:15;3.15;;;2.53;;
10939;SDS011;5522;42.696;23.494;2024-03-08T06:10:43;8.70;;;6.68;;
10939;SDS011;5522;42.696;23.494;2024-03-08T06:13:09;4.45;;;4.05;;
10939;SDS011;5522;42.696;23.494;2024-03-08T06:15:37;2.40;;;2.10;;
10939;SDS011;5522;42.696;23.494;2024-03-08T06:18:04;1.83;;;1.45;;
10939;SDS011;5522;42.696;23.494;2024-03-08T06:20:35;1.35;;;1.25;;
10939;SDS011;5522;42.696;23.494;2024-03-08T06:23:02;1.83;;;1.58;;
10939;SDS011;5522;42.696;23.494;2024-03-08T06:25:31;3.53;;;3.22;;
10939;SDS011;5522;42.696;23.494;2024-03-08T06:27:58;3.15;;;2.85;;
10939;SDS011;5522;42.696;23.494;2024-03-08T06:30:24;1.95;;;1.23;;
10939;SDS011;5522;42.696;23.494;2024-03-08T06:32:51;4.25;;;3.95;;
10939;SDS011;5522;42.696;23.494;2024-03-08T06:35:18;2.58;;;2.33;;
10939;SDS011;5522;42.696;23.494;2024-03-08T06:37:45;3.65;;;3.33;;
10939;SDS011;5522;42.696;23.494;2024-03-08T06:40:12;1.98;;;1.77;;
10939;SDS011;5522;42.696;23.494;2024-03-08T06:42:41;2.75;;;2.55;;
10939;SDS011;5522;42.696;23.494;2024-03-08T06:45:08;1.00;;;1.00;;
10939;SDS011;5522;42.696;23.494;2024-03-08T06:47:37;1.77;;;1.40;;
10939;SDS011;5522;42.696;23.494;2024-03-08T06:50:04;2.55;;;1.40;;
10939;SDS011;5522;42.696;23.494;2024-03-08T06:52:33;1.00;;;1.00;;
10939;SDS011;5522;42.696;23.494;2024-03-08T06:54:59;6.60;;;4.35;;
10939;SDS011;5522;42.696;23.494;2024-03-08T06:57:26;2.97;;;1.30;;
10939;SDS011;5522;42.696;23.494;2024-03-08T06:59:56;1.00;;;0.95;;
10939;SDS011;5522;42.696;23.494;2024-03-08T07:02:23;1.17;;;1.15;;
10939;SDS011;5522;42.696;23.494;2024-03-08T07:04:50;0.80;;;0.80;;
10939;SDS011;5522;42.696;23.494;2024-03-08T07:07:18;0.90;;;0.90;;
10939;SDS011;5522;42.696;23.494;2024-03-08T07:09:45;1.17;;;0.60;;
10939;SDS011;5522;42.696;23.494;2024-03-08T07:12:14;1.52;;;0.60;;
10939;SDS011;5522;42.696;23.494;2024-03-08T07:14:42;1.48;;;0.70;;
10939;SDS011;5522;42.696;23.494;2024-03-08T07:17:11;0.80;;;0.80;;
10939;SDS011;5522;42.696;23.494;2024-03-08T07:19:38;0.73;;;0.70;;
10939;SDS011;5522;42.696;23.494;2024-03-08T07:22:05;0.60;;;0.60;;
10939;SDS011;5522;42.696;23.494;2024-03-08T07:24:34;0.82;;;0.43;;
10939;SDS011;5522;42.696;23.494;2024-03-08T07:27:25;0.50;;;0.50;;
10939;SDS011;5522;42.696;23.494;2024-03-08T07:29:52;0.40;;;0.40;;
10939;SDS011;5522;42.696;23.494;2024-03-08T07:32:21;0.57;;;0.50;;
10939;SDS011;5522;42.696;23.494;2024-03-08T07:34:48;0.40;;;0.40;;
10939;SDS011;5522;42.696;23.494;2024-03-08T07:37:15;1.58;;;0.40;;
10939;SDS011;5522;42.696;23.494;2024-03-08T07:39:42;0.40;;;0.40;;
10939;SDS011;5522;42.696;23.494;2024-03-08T07:42:09;0.40;;;0.40;;
10939;SDS011;5522;42.696;23.494;2024-03-08T07:44:37;0.40;;;0.40;;
10939;SDS011;5522;42.696;23.494;2024-03-08T07:47:04;0.40;;;0.40;;
10939;SDS011;5522;42.696;23.494;2024-03-08T07:49:35;0.45;;;0.30;;
10939;SDS011;5522;42.696;23.494;2024-03-08T07:52:03;0.65;;;0.40;;
10939;SDS011;5522;42.696;23.494;2024-03-08T07:54:32;0.50;;;0.20;;
10939;SDS011;5522;42.696;23.494;2024-03-08T07:57:00;0.65;;;0.30;;
10939;SDS011;5522;42.696;23.494;2024-03-08T07:59:28;0.32;;;0.30;;
10939;SDS011;5522;42.696;23.494;2024-03-08T08:01:54;0.35;;;0.30;;
10939;SDS011;5522;42.696;23.494;2024-03-08T08:04:22;0.30;;;0.30;;
10939;SDS011;5522;42.696;23.494;2024-03-08T08:06:51;0.50;;;0.40;;
10939;SDS011;5522;42.696;23.494;2024-03-08T08:09:19;0.40;;;0.40;;
10939;SDS011;5522;42.696;23.494;2024-03-08T08:11:53;0.60;;;0.40;;
10939;SDS011;5522;42.696;23.494;2024-03-08T08:14:20;0.30;;;0.30;;
10939;SDS011;5522;42.696;23.494;2024-03-08T08:16:47;0.77;;;0.40;;
10939;SDS011;5522;42.696;23.494;2024-03-08T08:19:16;0.70;;;0.40;;
10939;SDS011;5522;42.696;23.494;2024-03-08T08:21:43;0.73;;;0.35;;
10939;SDS011;5522;42.696;23.494;2024-03-08T08:24:12;1.25;;;0.45;;
10939;SDS011;5522;42.696;23.494;2024-03-08T08:26:39;5.43;;;3.50;;
10939;SDS011;5522;42.696;23.494;2024-03-08T08:29:08;3.03;;;1.33;;
10939;SDS011;5522;42.696;23.494;2024-03-08T08:31:35;0.45;;;0.40;;
10939;SDS011;5522;42.696;23.494;2024-03-08T08:34:02;0.40;;;0.30;;
10939;SDS011;5522;42.696;23.494;2024-03-08T08:36:29;0.30;;;0.30;;
10939;SDS011;5522;42.696;23.494;2024-03-08T08:38:56;1.58;;;0.20;;
10939;SDS011;5522;42.696;23.494;2024-03-08T08:41:26;0.30;;;0.30;;
10939;SDS011;5522;42.696;23.494;2024-03-08T08:43:54;0.30;;;0.30;;
10939;SDS011;5522;42.696;23.494;2024-03-08T08:46:21;2.97;;;0.50;;
10939;SDS011;5522;42.696;23.494;2024-03-08T08:48:47;0.30;;;0.10;;
10939;SDS011;5522;42.696;23.494;2024-03-08T08:51:14;0.40;;;0.40;;
10939;SDS011;5522;42.696;23.494;2024-03-08T08:53:41;0.20;;;0.20;;
10939;SDS011;5522;42.696;23.494;2024-03-08T08:56:10;2.60;;;0.28;;
10939;SDS011;5522;42.696;23.494;2024-03-08T08:58:39;1.02;;;0.30;;
10939;SDS011;5522;42.696;23.494;2024-03-08T09:01:07;0.32;;;0.30;;
10939;SDS011;5522;42.696;23.494;2024-03-08T09:03:35;0.75;;;0.30;;
10939;SDS011;5522;42.696;23.494;2024-03-08T09:06:02;0.30;;;0.30;;
10939;SDS011;5522;42.696;23.494;2024-03-08T09:08:29;0.20;;;0.20;;
10939;SDS011;5522;42.696;23.494;2024-03-08T09:10:57;4.30;;;1.73;;
10939;SDS011;5522;42.696;23.494;2024-03-08T09:13:24;1.55;;;0.47;;
10939;SDS011;5522;42.696;23.494;2024-03-08T09:15:53;0.50;;;0.30;;
10939;SDS011;5522;42.696;23.494;2024-03-08T09:18:19;0.38;;;0.30;;
10939;SDS011;5522;42.696;23.494;2024-03-08T09:20:46;7.18;;;2.13;;
10939;SDS011;5522;42.696;23.494;2024-03-08T09:23:13;3.85;;;0.82;;
10939;SDS011;5522;42.696;23.494;2024-03-08T09:25:42;21.38;;;6.18;;
10939;SDS011;5522;42.696;23.494;2024-03-08T09:28:08;15.68;;;4.65;;
10939;SDS011;5522;42.696;23.494;2024-03-08T09:30:37;5.47;;;0.80;;
10939;SDS011;5522;42.696;23.494;2024-03-08T09:33:05;1.92;;;0.95;;
10939;SDS011;5522;42.696;23.494;2024-03-08T09:35:32;0.10;;;0.10;;
10939;SDS011;5522;42.696;23.494;2024-03-08T09:37:59;2.80;;;2.33;;
10939;SDS011;5522;42.696;23.494;2024-03-08T09:40:26;0.60;;;0.30;;
10939;SDS011;5522;42.696;23.494;2024-03-08T09:42:53;1.25;;;0.40;;
10939;SDS011;5522;42.696;23.494;2024-03-08T09:45:20;0.03;;;0.03;;
10939;SDS011;5522;42.696;23.494;2024-03-08T09:47:48;0.10;;;0.10;;
10939;SDS011;5522;42.696;23.494;2024-03-08T09:50:18;0.10;;;0.10;;
10939;SDS011;5522;42.696;23.494;2024-03-08T09:52:52;0.17;;;0.17;;
10939;SDS011;5522;42.696;23.494;2024-03-08T09:55:22;0.10;;;0.10;;
10939;SDS011;5522;42.696;23.494;2024-03-08T09:57:49;0.10;;;0.10;;
10939;SDS011;5522;42.696;23.494;2024-03-08T10:00:35;0.08;;;0.08;;
10939;SDS011;5522;42.696;23.494;2024-03-08T10:03:02;0.10;;;0.10;;
10939;SDS011;5522;42.696;23.494;2024-03-08T10:05:32;0.10;;;0.10;;
10939;SDS011;5522;42.696;23.494;2024-03-08T10:08:02;0.20;;;0.20;;
10939;SDS011;5522;42.696;23.494;2024-03-08T10:10:30;0.20;;;0.20;;
10939;SDS011;5522;42.696;23.494;2024-03-08T10:13:00;0.40;;;0.40;;
10939;SDS011;5522;42.696;23.494;2024-03-08T10:15:27;0.10;;;0.10;;
10939;SDS011;5522;42.696;23.494;2024-03-08T10:17:58;0.75;;;0.10;;
10939;SDS011;5522;42.696;23.494;2024-03-08T10:20:27;0.50;;;0.50;;
10939;SDS011;5522;42.696;23.494;2024-03-08T10:22:59;0.10;;;0.10;;
10939;SDS011;5522;42.696;23.494;2024-03-08T10:25:29;0.30;;;0.30;;
10939;SDS011;5522;42.696;23.494;2024-03-08T10:27:56;2.83;;;0.50;;
10939;SDS011;5522;42.696;23.494;2024-03-08T10:30:30;0.40;;;0.40;;
10939;SDS011;5522;42.696;23.494;2024-03-08T10:32:59;0.40;;;0.20;;
10939;SDS011;5522;42.696;23.494;2024-03-08T10:35:29;1.27;;;0.10;;
10939;SDS011;5522;42.696;23.494;2024-03-08T10:37:58;0.10;;;0.10;;
10939;SDS011;5522;42.696;23.494;2024-03-08T10:40:28;0.10;;;0.10;;
10939;SDS011;5522;42.696;23.494;2024-03-08T10:42:56;2.80;;;1.15;;
10939;SDS011;5522;42.696;23.494;2024-03-08T10:45:30;1.20;;;1.05;;
10939;SDS011;5522;42.696;23.494;2024-03-08T10:48:17;1.15;;;0.40;;
10939;SDS011;5522;42.696;23.494;2024-03-08T10:50:56;0.20;;;0.20;;
10939;SDS011;5522;42.696;23.494;2024-03-08T10:53:25;0.82;;;0.10;;
10939;SDS011;5522;42.696;23.494;2024-03-08T10:55:54;9.43;;;7.45;;
10939;SDS011;5522;42.696;23.494;2024-03-08T10:58:23;0.30;;;0.30;;
10939;SDS011;5522;42.696;23.494;2024-03-08T11:00:52;0.30;;;0.10;;
10939;SDS011;5522;42.696;23.494;2024-03-08T11:06:14;0.43;;;0.10;;
10939;SDS011;5522;42.696;23.494;2024-03-08T11:08:43;0.10;;;0.10;;
10939;SDS011;5522;42.696;23.494;2024-03-08T11:11:25;0.57;;;0.10;;
10939;SDS011;5522;42.696;23.494;2024-03-08T11:13:59;0.10;;;0.10;;
10939;SDS011;5522;42.696;23.494;2024-03-08T11:16:37;2.10;;;0.10;;
10939;SDS011;5522;42.696;23.494;2024-03-08T11:19:22;1.13;;;0.10;;
10939;SDS011;5522;42.696;23.494;2024-03-08T11:21:57;0.10;;;0.10;;
10939;SDS011;5522;42.696;23.494;2024-03-08T11:24:26;0.10;;;0.10;;
10939;SDS011;5522;42.696;23.494;2024-03-08T11:26:56;0.20;;;0.20;;
10939;SDS011;5522;42.696;23.494;2024-03-08T11:29:32;3.50;;;0.30;;
10939;SDS011;5522;42.696;23.494;2024-03-08T11:32:03;0.32;;;0.32;;
10939;SDS011;5522;42.696;23.494;2024-03-08T11:34:31;0.65;;;0.10;;
10939;SDS011;5522;42.696;23.494;2024-03-08T11:36:59;0.10;;;0.10;;
10939;SDS011;5522;42.696;23.494;2024-03-08T11:39:27;0.20;;;0.20;;
10939;SDS011;5522;42.696;23.494;2024-03-08T11:41:55;0.50;;;0.30;;
10939;SDS011;5522;42.696;23.494;2024-03-08T11:44:26;1.02;;;0.60;;
10939;SDS011;5522;42.696;23.494;2024-03-08T11:46:53;0.30;;;0.30;;
10939;SDS011;5522;42.696;23.494;2024-03-08T11:49:20;50.53;;;18.13;;
10939;SDS011;5522;42.696;23.494;2024-03-08T11:51:50;10.68;;;2.90;;
10939;SDS011;5522;42.696;23.494;2024-03-08T11:54:18;1.75;;;0.40;;
10939;SDS011;5522;42.696;23.494;2024-03-08T11:56:47;0.50;;;0.50;;
10939;SDS011;5522;42.696;23.494;2024-03-08T11:59:17;0.70;;;0.63;;
10939;SDS011;5522;42.696;23.494;2024-03-08T12:01:44;0.22;;;0.22;;
10939;SDS011;5522;42.696;23.494;2024-03-08T12:04:35;0.20;;;0.20;;
10939;SDS011;5522;42.696;23.494;2024-03-08T12:07:02;0.40;;;0.40;;
10939;SDS011;5522;42.696;23.494;2024-03-08T12:09:34;0.65;;;0.30;;
10939;SDS011;5522;42.696;23.494;2024-03-08T12:12:03;0.75;;;0.20;;
10939;SDS011;5522;42.696;23.494;2024-03-08T12:14:33;0.30;;;0.30;;
10939;SDS011;5522;42.696;23.494;2024-03-08T12:17:01;0.40;;;0.20;;
10939;SDS011;5522;42.696;23.494;2024-03-08T12:19:29;0.70;;;0.20;;
10939;SDS011;5522;42.696;23.494;2024-03-08T12:21:56;0.47;;;0.30;;
10939;SDS011;5522;42.696;23.494;2024-03-08T12:24:23;0.10;;;0.10;;
10939;SDS011;5522;42.696;23.494;2024-03-08T12:26:52;3.38;;;1.73;;
10939;SDS011;5522;42.696;23.494;2024-03-08T12:29:23;0.60;;;0.40;;
10939;SDS011;5522;42.696;23.494;2024-03-08T12:31:53;0.40;;;0.40;;
10939;SDS011;5522;42.696;23.494;2024-03-08T12:34:20;0.65;;;0.30;;
10939;SDS011;5522;42.696;23.494;2024-03-08T12:36:48;0.35;;;0.20;;
10939;SDS011;5522;42.696;23.494;2024-03-08T12:39:19;4.72;;;0.77;;
10939;SDS011;5522;42.696;23.494;2024-03-08T12:41:51;7.47;;;5.85;;
10939;SDS011;5522;42.696;23.494;2024-03-08T12:44:19;9.63;;;2.78;;
10939;SDS011;5522;42.696;23.494;2024-03-08T12:46:48;15.80;;;3.00;;
10939;SDS011;5522;42.696;23.494;2024-03-08T12:49:16;21.80;;;8.45;;
10939;SDS011;5522;42.696;23.494;2024-03-08T12:51:43;7.90;;;2.92;;
10939;SDS011;5522;42.696;23.494;2024-03-08T12:54:11;18.95;;;6.78;;
10939;SDS011;5522;42.696;23.494;2024-03-08T12:56:38;127.68;;;38.08;;
10939;SDS011;5522;42.696;23.494;2024-03-08T12:59:06;75.70;;;35.78;;
10939;SDS011;5522;42.696;23.494;2024-03-08T13:01:35;0.47;;;0.25;;
10939;SDS011;5522;42.696;23.494;2024-03-08T13:04:04;0.20;;;0.20;;
10939;SDS011;5522;42.696;23.494;2024-03-08T13:06:31;0.55;;;0.55;;
10939;SDS011;5522;42.696;23.494;2024-03-08T13:08:59;0.98;;;0.55;;
10939;SDS011;5522;42.696;23.494;2024-03-08T13:11:30;0.82;;;0.30;;
10939;SDS011;5522;42.696;23.494;2024-03-08T13:14:01;0.70;;;0.70;;
10939;SDS011;5522;42.696;23.494;2024-03-08T13:16:29;1.05;;;0.40;;
10939;SDS011;5522;42.696;23.494;2024-03-08T13:18:56;0.20;;;0.20;;
10939;SDS011;5522;42.696;23.494;2024-03-08T13:21:25;1.15;;;0.40;;
10939;SDS011;5522;42.696;23.494;2024-03-08T13:23:55;1.50;;;0.75;;
10939;SDS011;5522;42.696;23.494;2024-03-08T13:26:24;27.05;;;7.90;;
10939;SDS011;5522;42.696;23.494;2024-03-08T13:28:56;11.02;;;5.97;;
10939;SDS011;5522;42.696;23.494;2024-03-08T13:31:23;3.42;;;0.90;;
10939;SDS011;5522;42.696;23.494;2024-03-08T13:33:50;1.67;;;0.70;;
10939;SDS011;5522;42.696;23.494;2024-03-08T13:36:23;0.20;;;0.20;;
10939;SDS011;5522;42.696;23.494;2024-03-08T13:38:55;3.03;;;0.82;;
10939;SDS011;5522;42.696;23.494;2024-03-08T13:41:24;0.25;;;0.25;;
10939;SDS011;5522;42.696;23.494;2024-03-08T13:43:51;1.08;;;0.22;;
10939;SDS011;5522;42.696;23.494;2024-03-08T13:46:18;0.60;;;0.20;;
10939;SDS011;5522;42.696;23.494;2024-03-08T13:48:45;0.10;;;0.10;;
10939;SDS011;5522;42.696;23.494;2024-03-08T13:51:13;0.30;;;0.22;;
10939;SDS011;5522;42.696;23.494;2024-03-08T13:53:42;0.40;;;0.20;;
10939;SDS011;5522;42.696;23.494;2024-03-08T13:56:10;0.20;;;0.20;;
10939;SDS011;5522;42.696;23.494;2024-03-08T13:58:37;0.20;;;0.20;;
10939;SDS011;5522;42.696;23.494;2024-03-08T14:01:05;0.20;;;0.20;;
10939;SDS011;5522;42.696;23.494;2024-03-08T14:03:37;1.40;;;0.20;;
10939;SDS011;5522;42.696;23.494;2024-03-08T14:06:06;0.20;;;0.20;;
10939;SDS011;5522;42.696;23.494;2024-03-08T14:08:34;0.20;;;0.20;;
10939;SDS011;5522;42.696;23.494;2024-03-08T14:11:03;0.40;;;0.40;;
10939;SDS011;5522;42.696;23.494;2024-03-08T14:13:37;1.50;;;0.20;;
10939;SDS011;5522;42.696;23.494;2024-03-08T14:16:07;0.10;;;0.10;;
10939;SDS011;5522;42.696;23.494;2024-03-08T14:18:35;1.45;;;0.20;;
10939;SDS011;5522;42.696;23.494;2024-03-08T14:21:02;0.25;;;0.20;;
10939;SDS011;5522;42.696;23.494;2024-03-08T14:23:30;1.77;;;0.28;;
10939;SDS011;5522;42.696;23.494;2024-03-08T14:25:58;0.40;;;0.40;;
10939;SDS011;5522;42.696;23.494;2024-03-08T14:28:25;13.52;;;4.93;;
10939;SDS011;5522;42.696;23.494;2024-03-08T14:30:54;11.82;;;4.78;;
10939;SDS011;5522;42.696;23.494;2024-03-08T14:33:20;15.23;;;6.40;;
10939;SDS011;5522;42.696;23.494;2024-03-08T14:35:50;15.57;;;8.13;;
10939;SDS011;5522;42.696;23.494;2024-03-08T14:38:17;15.15;;;6.72;;
10939;SDS011;5522;42.696;23.494;2024-03-08T14:40:45;7.25;;;2.40;;
10939;SDS011;5522;42.696;23.494;2024-03-08T14:43:13;3.80;;;1.83;;
10939;SDS011;5522;42.696;23.494;2024-03-08T14:45:40;4.15;;;2.75;;
10939;SDS011;5522;42.696;23.494;2024-03-08T14:48:08;1.23;;;0.80;;
10939;SDS011;5522;42.696;23.494;2024-03-08T14:50:37;4.38;;;2.50;;
10939;SDS011;5522;42.696;23.494;2024-03-08T14:53:04;4.13;;;2.00;;
10939;SDS011;5522;42.696;23.494;2024-03-08T14:55:31;7.35;;;5.18;;
10939;SDS011;5522;42.696;23.494;2024-03-08T14:58:00;12.55;;;5.97;;
10939;SDS011;5522;42.696;23.494;2024-03-08T15:00:26;9.82;;;5.60;;
10939;SDS011;5522;42.696;23.494;2024-03-08T15:02:59;3.25;;;1.65;;